sensor_id;sensor_type;location;lat;lon;timestamp;P1;durP1;ratioP1;P2;durP2;ratioP2
31308;SDS011;17936;52.446;10.840;2022-12-18T00:02:17;40.97;;;19.48;;
31308;SDS011;17936;52.446;10.840;2022-12-18T00:04:43;38.20;;;20.00;;
31308;SDS011;17936;52.446;10.840;2022-12-18T00:07:08;39.90;;;19.55;;
31308;SDS011;17936;52.446;10.840;2022-12-18T00:09:34;38.25;;;19.33;;
31308;SDS011;17936;52.446;10.840;2022-12-18T00:11:59;38.22;;;18.02;;
31308;SDS011;17936;52.446;10.840;2022-12-18T00:14:25;34.05;;;16.95;;
31308;SDS011;17936;52.446;10.840;2022-12-18T00:16:50;36.70;;;17.48;;
31308;SDS011;17936;52.446;10.840;2022-12-18T00:19:16;33.85;;;16.67;;
31308;SDS011;17936;52.446;10.840;2022-12-18T00:21:42;36.83;;;17.83;;
31308;SDS011;17936;52.446;10.840;2022-12-18T00:24:15;31.15;;;15.82;;
31308;SDS011;17936;52.446;10.840;2022-12-18T00:26:41;38.30;;;17.13;;
31308;SDS011;17936;52.446;10.840;2022-12-18T00:29:09;35.17;;;17.55;;
31308;SDS011;17936;52.446;10.840;2022-12-18T00:31:39;34.78;;;17.85;;
31308;SDS011;17936;52.446;10.840;2022-12-18T00:34:05;31.90;;;15.77;;
31308;SDS011;17936;52.446;10.840;2022-12-18T00:36:32;36.08;;;17.77;;
31308;SDS011;17936;52.446;10.840;2022-12-18T00:38:59;37.63;;;16.10;;
31308;SDS011;17936;52.446;10.840;2022-12-18T00:41:26;33.88;;;16.52;;
31308;SDS011;17936;52.446;10.840;2022-12-18T00:44:11;30.92;;;15.75;;
31308;SDS011;17936;52.446;10.840;2022-12-18T00:46:38;37.72;;;16.95;;
31308;SDS011;17936;52.446;10.840;2022-12-18T00:49:07;33.28;;;16.02;;
31308;SDS011;17936;52.446;10.840;2022-12-18T00:51:33;32.72;;;15.88;;
31308;SDS011;17936;52.446;10.840;2022-12-18T00:53:58;35.15;;;16.30;;
31308;SDS011;17936;52.446;10.840;2022-12-18T00:56:24;36.58;;;17.13;;
31308;SDS011;17936;52.446;10.840;2022-12-18T00:58:50;35.88;;;17.63;;
31308;SDS011;17936;52.446;10.840;2022-12-18T01:01:15;32.22;;;16.20;;
31308;SDS011;17936;52.446;10.840;2022-12-18T01:03:41;32.65;;;16.67;;
31308;SDS011;17936;52.446;10.840;2022-12-18T01:06:08;34.40;;;16.58;;
31308;SDS011;17936;52.446;10.840;2022-12-18T01:08:36;36.10;;;16.73;;
31308;SDS011;17936;52.446;10.840;2022-12-18T01:11:12;34.92;;;15.63;;
31308;SDS011;17936;52.446;10.840;2022-12-18T01:13:43;34.13;;;14.90;;
31308;SDS011;17936;52.446;10.840;2022-12-18T01:16:10;30.70;;;15.18;;
31308;SDS011;17936;52.446;10.840;2022-12-18T01:18:41;34.72;;;15.77;;
31308;SDS011;17936;52.446;10.840;2022-12-18T01:21:07;33.38;;;15.75;;
31308;SDS011;17936;52.446;10.840;2022-12-18T01:23:37;29.13;;;15.07;;
31308;SDS011;17936;52.446;10.840;2022-12-18T01:26:48;29.52;;;14.30;;
31308;SDS011;17936;52.446;10.840;2022-12-18T01:28:55;33.83;;;15.18;;
31308;SDS011;17936;52.446;10.840;2022-12-18T01:31:26;32.13;;;16.13;;
31308;SDS011;17936;52.446;10.840;2022-12-18T01:33:53;29.25;;;14.48;;
31308;SDS011;17936;52.446;10.840;2022-12-18T01:36:23;31.75;;;14.13;;
31308;SDS011;17936;52.446;10.840;2022-12-18T01:38:50;30.07;;;15.20;;
31308;SDS011;17936;52.446;10.840;2022-12-18T01:41:18;33.05;;;15.77;;
31308;SDS011;17936;52.446;10.840;2022-12-18T01:43:48;31.75;;;15.43;;
31308;SDS011;17936;52.446;10.840;2022-12-18T01:46:17;34.70;;;15.88;;
31308;SDS011;17936;52.446;10.840;2022-12-18T01:48:44;30.35;;;14.85;;
31308;SDS011;17936;52.446;10.840;2022-12-18T01:51:12;34.83;;;15.70;;
31308;SDS011;17936;52.446;10.840;2022-12-18T01:53:39;37.10;;;15.43;;
31308;SDS011;17936;52.446;10.840;2022-12-18T01:56:07;32.80;;;15.07;;
31308;SDS011;17936;52.446;10.840;2022-12-18T01:58:48;29.65;;;14.00;;
31308;SDS011;17936;52.446;10.840;2022-12-18T02:01:28;28.75;;;13.68;;
31308;SDS011;17936;52.446;10.840;2022-12-18T02:03:54;28.80;;;14.38;;
31308;SDS011;17936;52.446;10.840;2022-12-18T02:06:25;32.67;;;14.30;;
31308;SDS011;17936;52.446;10.840;2022-12-18T02:09:09;26.30;;;12.95;;
31308;SDS011;17936;52.446;10.840;2022-12-18T02:11:43;28.60;;;12.70;;
31308;SDS011;17936;52.446;10.840;2022-12-18T02:14:19;34.45;;;13.63;;
31308;SDS011;17936;52.446;10.840;2022-12-18T02:19:47;28.52;;;13.48;;
31308;SDS011;17936;52.446;10.840;2022-12-18T02:28:45;25.77;;;12.02;;
31308;SDS011;17936;52.446;10.840;2022-12-18T02:31:24;27.40;;;13.20;;
31308;SDS011;17936;52.446;10.840;2022-12-18T02:33:55;28.30;;;13.43;;
31308;SDS011;17936;52.446;10.840;2022-12-18T02:36:23;28.45;;;13.18;;
31308;SDS011;17936;52.446;10.840;2022-12-18T02:38:50;29.77;;;13.63;;
31308;SDS011;17936;52.446;10.840;2022-12-18T02:41:17;30.67;;;14.00;;
31308;SDS011;17936;52.446;10.840;2022-12-18T02:43:47;30.60;;;13.00;;
31308;SDS011;17936;52.446;10.840;2022-12-18T02:46:32;29.70;;;13.70;;
31308;SDS011;17936;52.446;10.840;2022-12-18T02:49:02;26.83;;;11.82;;
31308;SDS011;17936;52.446;10.840;2022-12-18T02:55:02;24.23;;;11.45;;
31308;SDS011;17936;52.446;10.840;2022-12-18T02:57:46;22.90;;;11.48;;
31308;SDS011;17936;52.446;10.840;2022-12-18T03:05:44;26.20;;;11.82;;
31308;SDS011;17936;52.446;10.840;2022-12-18T03:08:17;26.05;;;12.90;;
31308;SDS011;17936;52.446;10.840;2022-12-18T03:10:51;30.00;;;13.02;;
31308;SDS011;17936;52.446;10.840;2022-12-18T03:13:27;29.15;;;12.57;;
31308;SDS011;17936;52.446;10.840;2022-12-18T03:16:02;24.77;;;12.02;;
31308;SDS011;17936;52.446;10.840;2022-12-18T03:18:42;25.75;;;12.00;;
31308;SDS011;17936;52.446;10.840;2022-12-18T03:23:43;23.35;;;10.30;;
31308;SDS011;17936;52.446;10.840;2022-12-18T03:26:16;26.58;;;12.48;;
31308;SDS011;17936;52.446;10.840;2022-12-18T03:28:51;18.20;;;8.82;;
31308;SDS011;17936;52.446;10.840;2022-12-18T03:31:22;29.42;;;12.52;;
31308;SDS011;17936;52.446;10.840;2022-12-18T03:33:53;33.38;;;13.95;;
31308;SDS011;17936;52.446;10.840;2022-12-18T03:38:46;22.58;;;9.35;;
31308;SDS011;17936;52.446;10.840;2022-12-18T03:46:55;21.63;;;11.23;;
31308;SDS011;17936;52.446;10.840;2022-12-18T03:52:27;24.65;;;12.13;;
31308;SDS011;17936;52.446;10.840;2022-12-18T03:55:05;28.17;;;13.38;;
31308;SDS011;17936;52.446;10.840;2022-12-18T03:57:33;25.52;;;12.32;;
31308;SDS011;17936;52.446;10.840;2022-12-18T04:00:03;24.52;;;12.10;;
31308;SDS011;17936;52.446;10.840;2022-12-18T04:02:31;26.17;;;12.57;;
31308;SDS011;17936;52.446;10.840;2022-12-18T04:04:59;24.17;;;11.70;;
31308;SDS011;17936;52.446;10.840;2022-12-18T04:07:27;24.02;;;10.55;;
31308;SDS011;17936;52.446;10.840;2022-12-18T04:09:54;22.45;;;11.25;;
31308;SDS011;17936;52.446;10.840;2022-12-18T04:12:26;24.50;;;11.48;;
31308;SDS011;17936;52.446;10.840;2022-12-18T04:14:53;21.17;;;10.80;;
31308;SDS011;17936;52.446;10.840;2022-12-18T04:17:19;20.75;;;10.48;;
31308;SDS011;17936;52.446;10.840;2022-12-18T04:19:45;22.10;;;11.20;;
31308;SDS011;17936;52.446;10.840;2022-12-18T04:22:10;27.38;;;12.10;;
31308;SDS011;17936;52.446;10.840;2022-12-18T04:24:36;29.30;;;13.00;;
31308;SDS011;17936;52.446;10.840;2022-12-18T04:27:02;19.85;;;10.27;;
31308;SDS011;17936;52.446;10.840;2022-12-18T04:29:27;19.10;;;8.35;;
31308;SDS011;17936;52.446;10.840;2022-12-18T04:31:53;21.00;;;9.85;;
31308;SDS011;17936;52.446;10.840;2022-12-18T04:34:19;20.15;;;9.05;;
31308;SDS011;17936;52.446;10.840;2022-12-18T04:36:45;20.00;;;10.45;;
31308;SDS011;17936;52.446;10.840;2022-12-18T04:39:10;23.25;;;11.27;;
31308;SDS011;17936;52.446;10.840;2022-12-18T04:41:36;24.27;;;11.15;;
31308;SDS011;17936;52.446;10.840;2022-12-18T04:44:01;24.88;;;10.88;;
31308;SDS011;17936;52.446;10.840;2022-12-18T04:46:27;25.75;;;12.57;;
31308;SDS011;17936;52.446;10.840;2022-12-18T04:48:52;25.60;;;11.98;;
31308;SDS011;17936;52.446;10.840;2022-12-18T04:51:18;22.23;;;10.70;;
31308;SDS011;17936;52.446;10.840;2022-12-18T04:53:46;20.70;;;10.02;;
31308;SDS011;17936;52.446;10.840;2022-12-18T04:56:12;19.23;;;9.70;;
31308;SDS011;17936;52.446;10.840;2022-12-18T04:58:39;21.85;;;9.88;;
31308;SDS011;17936;52.446;10.840;2022-12-18T05:01:06;19.10;;;9.75;;
31308;SDS011;17936;52.446;10.840;2022-12-18T05:03:32;19.58;;;8.98;;
31308;SDS011;17936;52.446;10.840;2022-12-18T05:05:58;22.92;;;10.45;;
31308;SDS011;17936;52.446;10.840;2022-12-18T05:08:24;25.77;;;9.73;;
31308;SDS011;17936;52.446;10.840;2022-12-18T05:10:49;16.48;;;8.27;;
31308;SDS011;17936;52.446;10.840;2022-12-18T05:13:22;18.98;;;9.55;;
31308;SDS011;17936;52.446;10.840;2022-12-18T05:15:51;18.20;;;9.70;;
31308;SDS011;17936;52.446;10.840;2022-12-18T05:18:17;18.30;;;8.25;;
31308;SDS011;17936;52.446;10.840;2022-12-18T05:20:42;22.67;;;9.70;;
31308;SDS011;17936;52.446;10.840;2022-12-18T05:23:08;20.67;;;9.95;;
31308;SDS011;17936;52.446;10.840;2022-12-18T05:25:33;15.20;;;8.48;;
31308;SDS011;17936;52.446;10.840;2022-12-18T05:27:59;17.33;;;7.82;;
31308;SDS011;17936;52.446;10.840;2022-12-18T05:30:27;15.38;;;8.15;;
31308;SDS011;17936;52.446;10.840;2022-12-18T05:32:53;20.25;;;9.27;;
31308;SDS011;17936;52.446;10.840;2022-12-18T05:35:18;20.02;;;8.27;;
31308;SDS011;17936;52.446;10.840;2022-12-18T05:37:44;14.77;;;7.55;;
31308;SDS011;17936;52.446;10.840;2022-12-18T05:40:10;24.85;;;9.10;;
31308;SDS011;17936;52.446;10.840;2022-12-18T05:42:36;19.17;;;9.35;;
31308;SDS011;17936;52.446;10.840;2022-12-18T05:45:05;19.63;;;8.20;;
31308;SDS011;17936;52.446;10.840;2022-12-18T05:47:35;18.80;;;8.75;;
31308;SDS011;17936;52.446;10.840;2022-12-18T05:50:00;19.25;;;8.90;;
31308;SDS011;17936;52.446;10.840;2022-12-18T05:52:26;25.33;;;9.80;;
31308;SDS011;17936;52.446;10.840;2022-12-18T05:54:51;15.73;;;8.25;;
31308;SDS011;17936;52.446;10.840;2022-12-18T05:57:17;22.83;;;10.05;;
31308;SDS011;17936;52.446;10.840;2022-12-18T05:59:42;17.33;;;7.63;;
31308;SDS011;17936;52.446;10.840;2022-12-18T06:02:10;24.55;;;10.13;;
31308;SDS011;17936;52.446;10.840;2022-12-18T06:04:35;21.52;;;9.43;;
31308;SDS011;17936;52.446;10.840;2022-12-18T06:07:04;19.70;;;9.43;;
31308;SDS011;17936;52.446;10.840;2022-12-18T06:09:29;16.40;;;8.60;;
31308;SDS011;17936;52.446;10.840;2022-12-18T06:11:55;14.77;;;7.05;;
31308;SDS011;17936;52.446;10.840;2022-12-18T06:14:20;13.75;;;5.78;;
31308;SDS011;17936;52.446;10.840;2022-12-18T06:16:46;18.67;;;8.55;;
31308;SDS011;17936;52.446;10.840;2022-12-18T06:19:14;24.10;;;9.68;;
31308;SDS011;17936;52.446;10.840;2022-12-18T06:21:40;18.55;;;7.90;;
31308;SDS011;17936;52.446;10.840;2022-12-18T06:24:06;18.15;;;8.30;;
31308;SDS011;17936;52.446;10.840;2022-12-18T06:26:32;20.02;;;9.30;;
31308;SDS011;17936;52.446;10.840;2022-12-18T06:28:58;20.67;;;9.20;;
31308;SDS011;17936;52.446;10.840;2022-12-18T06:31:23;21.83;;;10.20;;
31308;SDS011;17936;52.446;10.840;2022-12-18T06:33:49;23.67;;;9.32;;
31308;SDS011;17936;52.446;10.840;2022-12-18T06:36:15;16.50;;;8.82;;
31308;SDS011;17936;52.446;10.840;2022-12-18T06:38:41;21.88;;;8.43;;
31308;SDS011;17936;52.446;10.840;2022-12-18T06:41:08;21.58;;;9.15;;
31308;SDS011;17936;52.446;10.840;2022-12-18T06:43:35;19.02;;;8.75;;
31308;SDS011;17936;52.446;10.840;2022-12-18T06:46:01;22.80;;;8.93;;
31308;SDS011;17936;52.446;10.840;2022-12-18T06:48:27;16.80;;;8.48;;
31308;SDS011;17936;52.446;10.840;2022-12-18T06:50:53;14.85;;;6.70;;
31308;SDS011;17936;52.446;10.840;2022-12-18T06:53:19;23.50;;;8.93;;
31308;SDS011;17936;52.446;10.840;2022-12-18T06:55:44;20.63;;;9.68;;
31308;SDS011;17936;52.446;10.840;2022-12-18T06:58:10;21.08;;;9.10;;
31308;SDS011;17936;52.446;10.840;2022-12-18T07:00:35;20.77;;;8.95;;
31308;SDS011;17936;52.446;10.840;2022-12-18T07:03:01;22.17;;;10.52;;
31308;SDS011;17936;52.446;10.840;2022-12-18T07:05:29;18.52;;;8.70;;
31308;SDS011;17936;52.446;10.840;2022-12-18T07:07:54;20.48;;;8.57;;
31308;SDS011;17936;52.446;10.840;2022-12-18T07:10:19;23.67;;;10.02;;
31308;SDS011;17936;52.446;10.840;2022-12-18T07:12:45;22.52;;;10.52;;
31308;SDS011;17936;52.446;10.840;2022-12-18T07:15:11;19.30;;;8.93;;
31308;SDS011;17936;52.446;10.840;2022-12-18T07:17:36;18.50;;;8.75;;
31308;SDS011;17936;52.446;10.840;2022-12-18T07:20:02;18.00;;;9.73;;
31308;SDS011;17936;52.446;10.840;2022-12-18T07:22:28;22.55;;;10.50;;
31308;SDS011;17936;52.446;10.840;2022-12-18T07:24:53;22.15;;;9.10;;
31308;SDS011;17936;52.446;10.840;2022-12-18T07:27:20;18.27;;;7.82;;
31308;SDS011;17936;52.446;10.840;2022-12-18T07:29:45;17.77;;;7.82;;
31308;SDS011;17936;52.446;10.840;2022-12-18T07:32:11;24.35;;;10.75;;
31308;SDS011;17936;52.446;10.840;2022-12-18T07:34:36;19.60;;;9.40;;
31308;SDS011;17936;52.446;10.840;2022-12-18T07:37:02;21.50;;;9.55;;
31308;SDS011;17936;52.446;10.840;2022-12-18T07:39:27;19.13;;;9.43;;
31308;SDS011;17936;52.446;10.840;2022-12-18T07:41:53;20.77;;;9.18;;
31308;SDS011;17936;52.446;10.840;2022-12-18T07:44:37;15.73;;;8.68;;
31308;SDS011;17936;52.446;10.840;2022-12-18T07:47:02;23.48;;;9.98;;
31308;SDS011;17936;52.446;10.840;2022-12-18T07:49:28;20.40;;;9.40;;
31308;SDS011;17936;52.446;10.840;2022-12-18T07:51:54;19.20;;;9.00;;
31308;SDS011;17936;52.446;10.840;2022-12-18T07:54:21;22.50;;;9.18;;
31308;SDS011;17936;52.446;10.840;2022-12-18T07:56:47;20.77;;;9.18;;
31308;SDS011;17936;52.446;10.840;2022-12-18T07:59:13;17.58;;;8.00;;
31308;SDS011;17936;52.446;10.840;2022-12-18T08:01:41;22.40;;;8.70;;
31308;SDS011;17936;52.446;10.840;2022-12-18T08:04:06;20.15;;;8.60;;
31308;SDS011;17936;52.446;10.840;2022-12-18T08:06:32;21.27;;;8.90;;
31308;SDS011;17936;52.446;10.840;2022-12-18T08:08:57;25.45;;;10.32;;
31308;SDS011;17936;52.446;10.840;2022-12-18T08:11:23;20.45;;;9.40;;
31308;SDS011;17936;52.446;10.840;2022-12-18T08:13:50;20.38;;;9.40;;
31308;SDS011;17936;52.446;10.840;2022-12-18T08:16:16;21.10;;;8.63;;
31308;SDS011;17936;52.446;10.840;2022-12-18T08:18:41;25.48;;;9.52;;
31308;SDS011;17936;52.446;10.840;2022-12-18T08:21:08;23.73;;;8.75;;
31308;SDS011;17936;52.446;10.840;2022-12-18T08:23:37;20.67;;;9.05;;
31308;SDS011;17936;52.446;10.840;2022-12-18T08:26:03;21.73;;;9.27;;
31308;SDS011;17936;52.446;10.840;2022-12-18T08:28:31;21.95;;;8.95;;
31308;SDS011;17936;52.446;10.840;2022-12-18T08:30:56;19.52;;;8.63;;
31308;SDS011;17936;52.446;10.840;2022-12-18T08:33:22;23.52;;;10.07;;
31308;SDS011;17936;52.446;10.840;2022-12-18T08:35:48;26.58;;;10.88;;
31308;SDS011;17936;52.446;10.840;2022-12-18T08:38:13;27.23;;;11.43;;
31308;SDS011;17936;52.446;10.840;2022-12-18T08:40:39;30.13;;;11.63;;
31308;SDS011;17936;52.446;10.840;2022-12-18T08:43:04;26.27;;;11.48;;
31308;SDS011;17936;52.446;10.840;2022-12-18T08:45:49;25.67;;;10.82;;
31308;SDS011;17936;52.446;10.840;2022-12-18T08:48:15;20.00;;;8.38;;
31308;SDS011;17936;52.446;10.840;2022-12-18T08:50:40;31.75;;;12.20;;
31308;SDS011;17936;52.446;10.840;2022-12-18T08:53:06;11.57;;;5.68;;
31308;SDS011;17936;52.446;10.840;2022-12-18T08:55:31;26.55;;;11.27;;
31308;SDS011;17936;52.446;10.840;2022-12-18T08:57:57;29.23;;;11.20;;
31308;SDS011;17936;52.446;10.840;2022-12-18T09:00:23;21.25;;;9.95;;
31308;SDS011;17936;52.446;10.840;2022-12-18T09:02:48;17.02;;;7.90;;
31308;SDS011;17936;52.446;10.840;2022-12-18T09:05:14;18.08;;;8.23;;
31308;SDS011;17936;52.446;10.840;2022-12-18T09:07:39;16.67;;;8.50;;
31308;SDS011;17936;52.446;10.840;2022-12-18T09:10:05;29.17;;;12.18;;
31308;SDS011;17936;52.446;10.840;2022-12-18T09:12:31;21.35;;;9.07;;
31308;SDS011;17936;52.446;10.840;2022-12-18T09:14:56;18.80;;;8.65;;
31308;SDS011;17936;52.446;10.840;2022-12-18T09:17:22;22.15;;;9.88;;
31308;SDS011;17936;52.446;10.840;2022-12-18T09:19:47;20.08;;;9.60;;
31308;SDS011;17936;52.446;10.840;2022-12-18T09:22:13;22.23;;;10.23;;
31308;SDS011;17936;52.446;10.840;2022-12-18T09:24:38;15.85;;;6.90;;
31308;SDS011;17936;52.446;10.840;2022-12-18T09:27:04;24.45;;;9.45;;
31308;SDS011;17936;52.446;10.840;2022-12-18T09:29:29;27.95;;;10.63;;
31308;SDS011;17936;52.446;10.840;2022-12-18T09:31:55;17.25;;;9.02;;
31308;SDS011;17936;52.446;10.840;2022-12-18T09:34:21;23.65;;;9.95;;
31308;SDS011;17936;52.446;10.840;2022-12-18T09:36:46;18.13;;;8.85;;
31308;SDS011;17936;52.446;10.840;2022-12-18T09:39:13;25.13;;;9.35;;
31308;SDS011;17936;52.446;10.840;2022-12-18T09:41:45;21.90;;;8.93;;
31308;SDS011;17936;52.446;10.840;2022-12-18T09:44:29;27.55;;;11.43;;
31308;SDS011;17936;52.446;10.840;2022-12-18T09:49:35;19.48;;;6.97;;
31308;SDS011;17936;52.446;10.840;2022-12-18T09:52:09;18.42;;;8.40;;
31308;SDS011;17936;52.446;10.840;2022-12-18T09:54:42;28.05;;;11.38;;
31308;SDS011;17936;52.446;10.840;2022-12-18T09:57:19;26.25;;;10.95;;
31308;SDS011;17936;52.446;10.840;2022-12-18T09:59:49;15.52;;;6.75;;
31308;SDS011;17936;52.446;10.840;2022-12-18T10:02:19;30.25;;;12.52;;
31308;SDS011;17936;52.446;10.840;2022-12-18T10:04:54;34.45;;;14.13;;
31308;SDS011;17936;52.446;10.840;2022-12-18T10:07:47;33.17;;;12.60;;
31308;SDS011;17936;52.446;10.840;2022-12-18T10:10:20;28.92;;;11.88;;
31308;SDS011;17936;52.446;10.840;2022-12-18T10:13:09;19.85;;;7.28;;
31308;SDS011;17936;52.446;10.840;2022-12-18T10:15:58;25.20;;;11.20;;
31308;SDS011;17936;52.446;10.840;2022-12-18T10:21:47;33.73;;;14.03;;
31308;SDS011;17936;52.446;10.840;2022-12-18T10:29:57;23.70;;;9.27;;
31308;SDS011;17936;52.446;10.840;2022-12-18T10:32:24;37.65;;;14.45;;
31308;SDS011;17936;52.446;10.840;2022-12-18T10:34:54;38.38;;;14.48;;
31308;SDS011;17936;52.446;10.840;2022-12-18T10:37:22;33.40;;;14.27;;
31308;SDS011;17936;52.446;10.840;2022-12-18T10:42:36;32.67;;;13.40;;
31308;SDS011;17936;52.446;10.840;2022-12-18T10:45:15;36.67;;;13.70;;
31308;SDS011;17936;52.446;10.840;2022-12-18T10:47:45;36.67;;;14.32;;
31308;SDS011;17936;52.446;10.840;2022-12-18T10:50:28;28.52;;;11.15;;
31308;SDS011;17936;52.446;10.840;2022-12-18T10:52:57;32.03;;;13.77;;
31308;SDS011;17936;52.446;10.840;2022-12-18T10:55:27;37.88;;;16.40;;
31308;SDS011;17936;52.446;10.840;2022-12-18T10:58:05;39.15;;;13.80;;
31308;SDS011;17936;52.446;10.840;2022-12-18T11:00:45;34.05;;;14.77;;
31308;SDS011;17936;52.446;10.840;2022-12-18T11:03:30;35.15;;;13.68;;
31308;SDS011;17936;52.446;10.840;2022-12-18T11:06:02;36.88;;;15.02;;
31308;SDS011;17936;52.446;10.840;2022-12-18T11:08:31;39.97;;;14.75;;
31308;SDS011;17936;52.446;10.840;2022-12-18T11:10:59;34.85;;;14.48;;
31308;SDS011;17936;52.446;10.840;2022-12-18T11:13:26;39.22;;;17.17;;
31308;SDS011;17936;52.446;10.840;2022-12-18T11:15:54;36.35;;;14.13;;
31308;SDS011;17936;52.446;10.840;2022-12-18T11:20:57;31.92;;;13.02;;
31308;SDS011;17936;52.446;10.840;2022-12-18T11:23:30;36.38;;;15.48;;
31308;SDS011;17936;52.446;10.840;2022-12-18T11:25:59;47.08;;;19.90;;
31308;SDS011;17936;52.446;10.840;2022-12-18T11:28:38;45.45;;;18.92;;
31308;SDS011;17936;52.446;10.840;2022-12-18T11:36:15;38.42;;;15.60;;
31308;SDS011;17936;52.446;10.840;2022-12-18T11:38:42;42.22;;;18.65;;
31308;SDS011;17936;52.446;10.840;2022-12-18T11:41:15;41.28;;;16.88;;
31308;SDS011;17936;52.446;10.840;2022-12-18T11:44:21;37.75;;;16.38;;
31308;SDS011;17936;52.446;10.840;2022-12-18T11:47:01;41.65;;;17.23;;
31308;SDS011;17936;52.446;10.840;2022-12-18T11:49:35;40.83;;;17.23;;
31308;SDS011;17936;52.446;10.840;2022-12-18T11:52:08;45.53;;;18.55;;
31308;SDS011;17936;52.446;10.840;2022-12-18T11:54:41;34.67;;;15.05;;
31308;SDS011;17936;52.446;10.840;2022-12-18T11:57:14;42.03;;;18.80;;
31308;SDS011;17936;52.446;10.840;2022-12-18T12:05:39;42.65;;;19.33;;
31308;SDS011;17936;52.446;10.840;2022-12-18T12:08:15;40.25;;;15.43;;
31308;SDS011;17936;52.446;10.840;2022-12-18T12:11:04;44.20;;;19.15;;
31308;SDS011;17936;52.446;10.840;2022-12-18T12:13:37;43.72;;;18.63;;
31308;SDS011;17936;52.446;10.840;2022-12-18T12:22:43;38.03;;;15.85;;
31308;SDS011;17936;52.446;10.840;2022-12-18T12:25:34;38.40;;;17.17;;
31308;SDS011;17936;52.446;10.840;2022-12-18T12:30:43;34.38;;;15.20;;
31308;SDS011;17936;52.446;10.840;2022-12-18T12:33:16;27.15;;;12.77;;
31308;SDS011;17936;52.446;10.840;2022-12-18T12:36:13;29.45;;;13.50;;
31308;SDS011;17936;52.446;10.840;2022-12-18T12:38:43;38.03;;;16.88;;
31308;SDS011;17936;52.446;10.840;2022-12-18T12:41:29;34.05;;;15.40;;
31308;SDS011;17936;52.446;10.840;2022-12-18T12:44:19;37.47;;;15.32;;
31308;SDS011;17936;52.446;10.840;2022-12-18T12:46:48;33.45;;;14.82;;
31308;SDS011;17936;52.446;10.840;2022-12-18T12:49:17;32.08;;;11.30;;
31308;SDS011;17936;52.446;10.840;2022-12-18T12:51:47;37.63;;;17.17;;
31308;SDS011;17936;52.446;10.840;2022-12-18T12:54:32;19.05;;;7.80;;
31308;SDS011;17936;52.446;10.840;2022-12-18T12:59:45;30.30;;;13.52;;
31308;SDS011;17936;52.446;10.840;2022-12-18T13:05:46;37.20;;;15.20;;
31308;SDS011;17936;52.446;10.840;2022-12-18T13:08:50;28.20;;;11.98;;
31308;SDS011;17936;52.446;10.840;2022-12-18T13:14:35;34.95;;;12.27;;
31308;SDS011;17936;52.446;10.840;2022-12-18T13:17:16;33.13;;;14.80;;
31308;SDS011;17936;52.446;10.840;2022-12-18T13:19:51;20.70;;;9.32;;
31308;SDS011;17936;52.446;10.840;2022-12-18T13:22:46;28.77;;;11.98;;
31308;SDS011;17936;52.446;10.840;2022-12-18T13:28:02;20.33;;;9.98;;
31308;SDS011;17936;52.446;10.840;2022-12-18T13:35:40;21.65;;;10.10;;
31308;SDS011;17936;52.446;10.840;2022-12-18T13:43:49;18.45;;;8.40;;
31308;SDS011;17936;52.446;10.840;2022-12-18T13:49:18;17.77;;;7.05;;
31308;SDS011;17936;52.446;10.840;2022-12-18T13:52:19;19.48;;;10.00;;
31308;SDS011;17936;52.446;10.840;2022-12-18T13:57:31;22.48;;;10.70;;
31308;SDS011;17936;52.446;10.840;2022-12-18T13:59:59;16.30;;;7.72;;
31308;SDS011;17936;52.446;10.840;2022-12-18T14:02:49;16.40;;;7.55;;
31308;SDS011;17936;52.446;10.840;2022-12-18T14:05:48;29.80;;;12.90;;
31308;SDS011;17936;52.446;10.840;2022-12-18T14:08:13;20.95;;;10.38;;
31308;SDS011;17936;52.446;10.840;2022-12-18T14:10:43;19.17;;;10.13;;
31308;SDS011;17936;52.446;10.840;2022-12-18T14:13:14;24.75;;;10.73;;
31308;SDS011;17936;52.446;10.840;2022-12-18T14:15:46;18.50;;;8.73;;
31308;SDS011;17936;52.446;10.840;2022-12-18T14:18:17;23.42;;;11.65;;
31308;SDS011;17936;52.446;10.840;2022-12-18T14:21:02;17.65;;;8.70;;
31308;SDS011;17936;52.446;10.840;2022-12-18T14:23:33;20.52;;;9.73;;
31308;SDS011;17936;52.446;10.840;2022-12-18T14:26:01;23.90;;;12.05;;
31308;SDS011;17936;52.446;10.840;2022-12-18T14:28:45;26.30;;;12.50;;
31308;SDS011;17936;52.446;10.840;2022-12-18T14:31:21;21.02;;;10.57;;
31308;SDS011;17936;52.446;10.840;2022-12-18T14:33:49;21.17;;;9.48;;
31308;SDS011;17936;52.446;10.840;2022-12-18T14:36:19;19.17;;;9.80;;
31308;SDS011;17936;52.446;10.840;2022-12-18T14:38:51;18.50;;;9.45;;
31308;SDS011;17936;52.446;10.840;2022-12-18T14:41:19;21.10;;;8.70;;
31308;SDS011;17936;52.446;10.840;2022-12-18T14:43:46;23.80;;;10.68;;
31308;SDS011;17936;52.446;10.840;2022-12-18T14:49:31;14.35;;;7.20;;
31308;SDS011;17936;52.446;10.840;2022-12-18T14:51:59;21.45;;;9.02;;
31308;SDS011;17936;52.446;10.840;2022-12-18T14:54:26;18.30;;;8.63;;
31308;SDS011;17936;52.446;10.840;2022-12-18T14:57:06;22.10;;;10.30;;
31308;SDS011;17936;52.446;10.840;2022-12-18T14:59:48;14.82;;;6.50;;
31308;SDS011;17936;52.446;10.840;2022-12-18T15:02:18;21.40;;;10.75;;
31308;SDS011;17936;52.446;10.840;2022-12-18T15:05:33;21.13;;;8.63;;
31308;SDS011;17936;52.446;10.840;2022-12-18T15:08:27;18.75;;;9.65;;
31308;SDS011;17936;52.446;10.840;2022-12-18T15:11:01;20.15;;;6.82;;
31308;SDS011;17936;52.446;10.840;2022-12-18T15:13:27;15.75;;;7.15;;
31308;SDS011;17936;52.446;10.840;2022-12-18T15:15:53;20.33;;;8.77;;
31308;SDS011;17936;52.446;10.840;2022-12-18T15:18:32;15.63;;;6.78;;
31308;SDS011;17936;52.446;10.840;2022-12-18T15:21:06;19.08;;;7.72;;
31308;SDS011;17936;52.446;10.840;2022-12-18T15:23:35;16.73;;;7.53;;
31308;SDS011;17936;52.446;10.840;2022-12-18T15:26:10;18.35;;;8.05;;
31308;SDS011;17936;52.446;10.840;2022-12-18T15:28:48;19.15;;;10.23;;
31308;SDS011;17936;52.446;10.840;2022-12-18T15:34:01;19.48;;;9.48;;
31308;SDS011;17936;52.446;10.840;2022-12-18T15:36:35;16.88;;;8.27;;
31308;SDS011;17936;52.446;10.840;2022-12-18T15:39:01;21.88;;;8.65;;
31308;SDS011;17936;52.446;10.840;2022-12-18T15:41:28;19.35;;;9.30;;
31308;SDS011;17936;52.446;10.840;2022-12-18T15:43:57;18.40;;;8.18;;
31308;SDS011;17936;52.446;10.840;2022-12-18T15:46:23;22.38;;;10.35;;
31308;SDS011;17936;52.446;10.840;2022-12-18T15:48:50;15.93;;;7.40;;
31308;SDS011;17936;52.446;10.840;2022-12-18T15:51:33;16.33;;;7.50;;
31308;SDS011;17936;52.446;10.840;2022-12-18T15:54:01;19.58;;;9.45;;
31308;SDS011;17936;52.446;10.840;2022-12-18T15:56:28;24.20;;;9.48;;
31308;SDS011;17936;52.446;10.840;2022-12-18T15:59:15;18.77;;;9.43;;
31308;SDS011;17936;52.446;10.840;2022-12-18T16:01:43;19.48;;;9.35;;
31308;SDS011;17936;52.446;10.840;2022-12-18T16:04:11;19.63;;;9.70;;
31308;SDS011;17936;52.446;10.840;2022-12-18T16:06:38;24.17;;;11.30;;
31308;SDS011;17936;52.446;10.840;2022-12-18T16:09:04;15.48;;;8.45;;
31308;SDS011;17936;52.446;10.840;2022-12-18T16:11:31;23.77;;;9.98;;
31308;SDS011;17936;52.446;10.840;2022-12-18T16:16:57;16.75;;;8.00;;
31308;SDS011;17936;52.446;10.840;2022-12-18T16:19:26;19.65;;;8.30;;